createdAt,value
2023-03-15T00:00:12.620Z,41.70
2023-03-15T00:03:04.323Z,40.00
2023-03-15T00:05:32.751Z,38.10
2023-03-15T00:08:04.401Z,36.40
2023-03-15T00:10:32.897Z,30.30
2023-03-15T00:13:01.281Z,22.70
2023-03-15T00:15:29.851Z,24.50
2023-03-15T00:17:58.252Z,30.80
2023-03-15T00:20:26.744Z,27.10
2023-03-15T00:22:55.222Z,18.60
2023-03-15T00:25:23.709Z,16.90
2023-03-15T00:27:51.991Z,10.50
2023-03-15T00:30:20.792Z,13.20
2023-03-15T00:32:49.462Z,29.30
2023-03-15T00:35:18.581Z,29.90
2023-03-15T00:37:47.880Z,17.70
2023-03-15T00:40:17.580Z,11.40
2023-03-15T00:42:50.589Z,13.30
2023-03-15T00:45:21.932Z,24.00
2023-03-15T00:47:54.643Z,28.50
2023-03-15T00:50:25.181Z,23.80
2023-03-15T00:52:53.846Z,14.70
2023-03-15T00:55:22.552Z,12.60
2023-03-15T00:57:51.257Z,23.00
2023-03-15T01:00:25.062Z,31.70
2023-03-15T01:02:54.940Z,37.40
2023-03-15T01:05:23.748Z,28.40
2023-03-15T01:07:53.066Z,22.80
2023-03-15T01:10:21.539Z,14.20
2023-03-15T01:12:50.028Z,8.60
2023-03-15T01:15:18.510Z,8.00
2023-03-15T01:17:47.003Z,8.30
2023-03-15T01:20:16.095Z,7.30
2023-03-15T01:22:44.384Z,7.20
2023-03-15T01:25:12.660Z,6.00
2023-03-15T01:27:41.009Z,4.50
2023-03-15T01:30:10.367Z,3.20
2023-03-15T01:32:38.801Z,3.80
2023-03-15T01:35:08.155Z,4.40
2023-03-15T01:37:36.934Z,4.10
2023-03-15T01:40:06.696Z,4.30
2023-03-15T01:43:11.573Z,4.40
2023-03-15T01:46:02.575Z,6.20
2023-03-15T01:48:44.933Z,5.10
2023-03-15T01:53:59.706Z,5.20
2023-03-15T01:56:31.703Z,5.00
2023-03-15T01:59:03.521Z,4.40
2023-03-15T02:01:35.967Z,4.20
2023-03-15T02:04:10.178Z,4.70
2023-03-15T02:06:46.796Z,4.40
2023-03-15T02:09:19.224Z,5.10
2023-03-15T02:11:48.430Z,5.10
2023-03-15T02:14:18.242Z,4.50
2023-03-15T02:16:47.193Z,4.50
2023-03-15T02:19:35.931Z,3.70
2023-03-15T02:22:44.998Z,4.50
2023-03-15T02:25:32.115Z,4.40
2023-03-15T02:28:01.985Z,4.90
2023-03-15T02:30:30.213Z,4.50
2023-03-15T02:33:02.791Z,4.90
2023-03-15T02:35:33.195Z,4.60
2023-03-15T02:38:02.935Z,4.80
2023-03-15T02:40:31.422Z,4.50
2023-03-15T02:43:05.792Z,4.20
2023-03-15T02:45:36.083Z,5.50
2023-03-15T02:48:06.666Z,5.60
2023-03-15T02:50:35.296Z,5.80
2023-03-15T02:53:04.140Z,5.50
2023-03-15T02:55:32.994Z,6.40
2023-03-15T02:58:02.501Z,4.80
2023-03-15T03:00:31.295Z,4.70
2023-03-15T03:02:59.988Z,5.40
2023-03-15T03:05:28.271Z,6.10
2023-03-15T03:07:56.755Z,4.90
2023-03-15T03:10:25.162Z,5.70
2023-03-15T03:12:56.692Z,4.80
2023-03-15T03:15:31.119Z,5.40
2023-03-15T03:17:59.500Z,5.10
2023-03-15T03:20:28.398Z,5.00
2023-03-15T03:22:56.782Z,5.00
2023-03-15T03:25:27.492Z,5.20
2023-03-15T03:27:57.517Z,4.90
2023-03-15T03:30:27.560Z,5.00
2023-03-15T03:32:55.875Z,4.00
2023-03-15T03:35:24.332Z,5.30
2023-03-15T03:37:53.953Z,4.80
2023-03-15T03:40:31.324Z,4.70
2023-03-15T03:42:59.811Z,6.40
2023-03-15T03:45:28.502Z,8.10
2023-03-15T03:47:58.230Z,16.40
2023-03-15T03:50:27.218Z,21.30
2023-03-15T03:52:55.821Z,21.90
2023-03-15T03:55:27.268Z,28.10
2023-03-15T03:57:56.179Z,21.40
2023-03-15T04:00:39.378Z,17.60
2023-03-15T04:03:09.214Z,14.80
2023-03-15T04:05:39.826Z,10.90
2023-03-15T04:08:08.314Z,6.90
2023-03-15T04:10:40.085Z,6.80
2023-03-15T04:13:09.280Z,6.50
2023-03-15T04:15:37.634Z,6.40
2023-03-15T04:18:06.898Z,6.40
2023-03-15T04:20:47.070Z,6.10
2023-03-15T04:23:19.301Z,5.90
2023-03-15T04:26:07.426Z,6.30
2023-03-15T04:28:57.689Z,6.00
2023-03-15T04:31:37.949Z,10.30
2023-03-15T04:34:41.946Z,11.60
2023-03-15T04:37:20.703Z,9.50
2023-03-15T04:40:16.856Z,8.90
2023-03-15T04:42:55.837Z,11.20
2023-03-15T04:45:34.243Z,13.00
2023-03-15T04:48:03.814Z,9.50
2023-03-15T04:50:40.945Z,9.00
2023-03-15T04:53:29.689Z,7.50
2023-03-15T04:56:18.345Z,5.90
2023-03-15T04:59:05.655Z,5.60
2023-03-15T05:01:52.481Z,5.60
2023-03-15T05:04:36.192Z,5.70
2023-03-15T05:07:18.905Z,6.00
2023-03-15T05:10:06.187Z,5.80
2023-03-15T05:12:54.659Z,6.60
2023-03-15T05:15:28.910Z,5.30
2023-03-15T05:18:35.640Z,4.90
2023-03-15T05:21:22.647Z,5.20
2023-03-15T05:24:17.646Z,5.30
2023-03-15T05:27:14.674Z,7.80
2023-03-15T05:30:05.797Z,5.70
2023-03-15T05:32:53.088Z,8.90
2023-03-15T05:35:57.315Z,9.60
2023-03-15T05:38:32.073Z,12.30
2023-03-15T05:41:10.289Z,11.90
2023-03-15T05:43:57.240Z,9.40
2023-03-15T05:47:04.330Z,7.10
2023-03-15T05:49:48.766Z,5.70
2023-03-15T05:52:46.307Z,5.10
2023-03-15T05:55:28.093Z,5.00
2023-03-15T05:58:27.589Z,4.70
2023-03-15T06:01:11.732Z,5.60
2023-03-15T06:04:00.500Z,6.20
2023-03-15T06:06:31.553Z,5.50
2023-03-15T06:09:02.179Z,5.30
2023-03-15T06:11:30.754Z,4.70
2023-03-15T06:14:00.464Z,5.20
2023-03-15T06:16:35.734Z,4.60
2023-03-15T06:19:05.415Z,4.70
2023-03-15T06:21:34.217Z,5.60
2023-03-15T06:24:02.802Z,6.00
2023-03-15T06:26:31.185Z,5.40
2023-03-15T06:29:02.535Z,4.80
2023-03-15T06:31:31.027Z,4.00
2023-03-15T06:34:04.322Z,4.40
2023-03-15T06:36:33.113Z,4.80
2023-03-15T06:39:02.972Z,5.80
2023-03-15T06:41:32.667Z,4.40
2023-03-15T06:44:11.880Z,4.50
2023-03-15T06:46:40.580Z,4.70
2023-03-15T06:49:09.060Z,3.90
2023-03-15T06:51:38.577Z,4.70
2023-03-15T06:54:06.951Z,4.40
2023-03-15T06:56:37.589Z,5.00
2023-03-15T06:59:06.188Z,4.10
2023-03-15T07:01:35.286Z,4.00
2023-03-15T07:04:03.772Z,5.80
2023-03-15T07:06:32.253Z,4.70
2023-03-15T07:09:00.838Z,5.40
2023-03-15T07:11:29.339Z,5.10
2023-03-15T07:13:58.734Z,3.90
2023-03-15T07:16:27.428Z,4.30
2023-03-15T07:18:56.942Z,4.80
2023-03-15T07:21:25.424Z,4.90
2023-03-15T07:23:54.950Z,5.30
2023-03-15T07:26:23.350Z,4.30
2023-03-15T07:28:51.605Z,5.00
2023-03-15T07:31:20.097Z,5.90
2023-03-15T07:33:48.475Z,4.60
2023-03-15T07:36:16.755Z,4.10
2023-03-15T07:38:45.143Z,5.90
2023-03-15T07:41:13.825Z,5.10
2023-03-15T07:46:19.219Z,4.10
2023-03-15T07:48:48.289Z,4.30
2023-03-15T07:51:16.786Z,4.20
2023-03-15T07:53:45.464Z,4.10
2023-03-15T07:56:13.954Z,4.40
2023-03-15T07:58:42.588Z,4.20
2023-03-15T08:01:10.827Z,4.30
2023-03-15T08:03:39.313Z,3.60
2023-03-15T08:06:08.463Z,3.70
2023-03-15T08:08:36.794Z,3.70
2023-03-15T08:11:06.548Z,4.10
2023-03-15T08:13:34.899Z,3.30
2023-03-15T08:16:03.356Z,3.60
2023-03-15T08:18:32.276Z,3.00
2023-03-15T08:21:01.280Z,3.20
2023-03-15T08:23:30.478Z,2.60
2023-03-15T08:25:59.310Z,3.40
2023-03-15T08:28:27.761Z,3.80
2023-03-15T08:30:56.347Z,3.30
2023-03-15T08:33:24.872Z,4.10
2023-03-15T08:35:54.106Z,3.80
2023-03-15T08:38:23.197Z,3.30
2023-03-15T08:40:58.373Z,4.00
2023-03-15T08:43:26.779Z,4.50
2023-03-15T08:46:01.174Z,3.20
2023-03-15T08:48:31.755Z,3.10
2023-03-15T08:51:07.441Z,3.10
2023-03-15T08:53:35.972Z,3.30
2023-03-15T08:56:04.873Z,3.10
2023-03-15T08:58:34.877Z,3.10
2023-03-15T09:01:05.058Z,3.00
2023-03-15T09:03:33.479Z,2.80
2023-03-15T09:06:01.969Z,2.90
2023-03-15T09:08:30.248Z,3.10
2023-03-15T09:10:59.950Z,2.30
2023-03-15T09:13:29.178Z,2.60
2023-03-15T09:15:58.165Z,3.10
2023-03-15T09:18:26.650Z,2.80
2023-03-15T09:20:56.732Z,2.40
2023-03-15T09:23:26.081Z,2.40
2023-03-15T09:25:54.367Z,2.40
2023-03-15T09:28:22.855Z,3.10
2023-03-15T09:30:51.879Z,2.90
2023-03-15T09:33:22.548Z,2.50
2023-03-15T09:35:52.628Z,3.10
2023-03-15T09:38:22.224Z,3.00
2023-03-15T09:40:51.602Z,3.30
2023-03-15T09:43:29.432Z,2.30
2023-03-15T09:46:12.274Z,1.90
2023-03-15T09:48:57.148Z,2.40
2023-03-15T09:51:52.096Z,2.10
2023-03-15T09:54:29.513Z,2.60
2023-03-15T09:57:04.624Z,2.40
2023-03-15T09:59:36.402Z,2.70
2023-03-15T10:02:19.924Z,2.10
2023-03-15T10:04:52.045Z,2.10
2023-03-15T10:07:21.418Z,1.50
2023-03-15T10:09:51.314Z,1.90
2023-03-15T10:12:33.306Z,1.80
2023-03-15T10:15:24.820Z,1.60
2023-03-15T10:17:59.239Z,1.30
2023-03-15T10:20:35.821Z,1.80
2023-03-15T10:23:18.232Z,1.70
2023-03-15T10:25:49.474Z,2.00
2023-03-15T10:28:34.809Z,1.60
2023-03-15T10:31:44.558Z,2.20
2023-03-15T10:34:15.557Z,1.90
2023-03-15T10:36:46.402Z,1.90
2023-03-15T10:39:15.665Z,1.60
2023-03-15T10:41:47.407Z,1.70
2023-03-15T10:44:27.164Z,2.20
2023-03-15T10:47:23.609Z,1.80
2023-03-15T10:49:58.586Z,2.30
2023-03-15T10:52:40.224Z,2.90
2023-03-15T10:55:18.817Z,2.30
2023-03-15T10:58:02.336Z,1.70
2023-03-15T11:00:33.132Z,1.70
2023-03-15T11:03:06.138Z,1.30
2023-03-15T11:08:19.066Z,1.80
2023-03-15T11:10:56.401Z,1.50
2023-03-15T11:13:24.679Z,1.40
2023-03-15T11:16:06.762Z,1.20
2023-03-15T11:18:44.474Z,1.60
2023-03-15T11:21:15.446Z,1.20
2023-03-15T11:23:48.199Z,1.40
2023-03-15T11:26:33.491Z,1.30
2023-03-15T11:29:13.432Z,1.90
2023-03-15T11:31:41.840Z,2.10
2023-03-15T11:34:22.367Z,1.70
2023-03-15T11:37:07.654Z,1.60
2023-03-15T11:39:58.770Z,1.60
2023-03-15T11:42:37.096Z,1.40
2023-03-15T11:45:18.227Z,2.00
2023-03-15T11:48:01.764Z,1.60
2023-03-15T11:53:03.645Z,1.90
2023-03-15T11:55:33.765Z,1.80
2023-03-15T11:58:35.309Z,3.40
2023-03-15T12:01:06.194Z,2.10
2023-03-15T12:03:43.063Z,1.80
2023-03-15T12:06:36.375Z,2.40
2023-03-15T12:09:33.246Z,2.30
2023-03-15T12:12:26.614Z,2.30
2023-03-15T12:15:19.515Z,2.30
2023-03-15T12:17:56.914Z,2.80
2023-03-15T12:20:37.870Z,2.60
2023-03-15T12:23:13.685Z,2.60
2023-03-15T12:26:07.905Z,2.80
2023-03-15T12:28:39.344Z,2.00
2023-03-15T12:31:13.972Z,2.60
2023-03-15T12:33:58.630Z,2.90
2023-03-15T12:36:37.658Z,2.50
2023-03-15T12:39:18.126Z,2.50
2023-03-15T12:41:49.579Z,2.90
2023-03-15T12:44:18.984Z,3.20
2023-03-15T12:46:47.561Z,2.30
2023-03-15T12:49:25.358Z,3.00
2023-03-15T12:52:13.572Z,3.00
2023-03-15T12:54:50.116Z,2.90
2023-03-15T12:57:30.800Z,2.60
2023-03-15T13:00:15.291Z,2.00
2023-03-15T13:02:50.102Z,2.70
2023-03-15T13:05:39.174Z,2.50
2023-03-15T13:08:22.308Z,2.30
2023-03-15T13:11:00.622Z,3.60
2023-03-15T13:14:05.930Z,3.90
2023-03-15T13:16:39.327Z,12.00
2023-03-15T13:19:18.966Z,4.90
2023-03-15T13:22:25.114Z,3.30
2023-03-15T13:25:13.568Z,2.90
2023-03-15T13:27:59.950Z,3.20
2023-03-15T13:30:41.054Z,2.40
2023-03-15T13:33:11.455Z,3.80
2023-03-15T13:35:48.864Z,2.40
2023-03-15T13:38:28.283Z,2.90
2023-03-15T13:40:59.240Z,2.50
2023-03-15T13:43:37.533Z,2.50
2023-03-15T13:46:06.506Z,3.00
2023-03-15T13:48:37.705Z,2.50
2023-03-15T13:51:21.007Z,2.80
2023-03-15T13:53:52.821Z,2.70
2023-03-15T13:56:32.674Z,2.60
2023-03-15T13:59:06.652Z,2.50
2023-03-15T14:01:39.752Z,2.80
2023-03-15T14:04:19.139Z,2.20
2023-03-15T14:06:48.765Z,2.60
2023-03-15T14:09:28.417Z,3.00
2023-03-15T14:12:06.220Z,2.90
2023-03-15T14:14:46.569Z,2.70
2023-03-15T14:17:25.808Z,2.90
2023-03-15T14:19:57.150Z,3.00
2023-03-15T14:22:26.156Z,2.70
2023-03-15T14:24:54.752Z,2.70
2023-03-15T14:27:27.947Z,2.40
2023-03-15T14:30:01.543Z,2.50
2023-03-15T14:32:35.201Z,2.50
2023-03-15T14:35:08.100Z,4.00
2023-03-15T14:37:38.254Z,3.20
2023-03-15T14:40:17.799Z,3.30
2023-03-15T14:42:46.482Z,3.00
2023-03-15T14:45:17.722Z,4.80
2023-03-15T14:47:56.894Z,3.70
2023-03-15T14:50:34.639Z,3.10
2023-03-15T14:53:04.892Z,3.20
2023-03-15T14:55:36.165Z,3.80
2023-03-15T14:58:14.660Z,3.60
2023-03-15T15:00:44.945Z,3.60
2023-03-15T15:03:55.115Z,3.50
2023-03-15T15:06:23.806Z,4.30
2023-03-15T15:08:56.912Z,4.50
2023-03-15T15:11:27.965Z,4.00
2023-03-15T15:13:56.939Z,3.90
2023-03-15T15:16:25.366Z,4.40
2023-03-15T15:18:54.426Z,4.00
2023-03-15T15:21:31.226Z,4.30
2023-03-15T15:24:07.366Z,5.00
2023-03-15T15:26:36.357Z,4.30
2023-03-15T15:29:04.943Z,5.70
2023-03-15T15:31:34.546Z,4.20
2023-03-15T15:34:03.040Z,5.20
2023-03-15T15:36:35.749Z,4.70
2023-03-15T15:39:11.281Z,6.80
2023-03-15T15:41:39.659Z,7.60
2023-03-15T15:44:16.240Z,7.30
2023-03-15T15:46:44.915Z,5.40
2023-03-15T15:49:13.510Z,7.30
2023-03-15T15:51:49.267Z,6.50
2023-03-15T15:54:26.556Z,7.30
2023-03-15T15:56:57.897Z,6.00
2023-03-15T15:59:27.367Z,5.50
2023-03-15T16:02:01.520Z,6.50
2023-03-15T16:04:30.849Z,5.40
2023-03-15T16:07:03.955Z,4.90
2023-03-15T16:09:37.732Z,5.20
2023-03-15T16:14:41.261Z,6.90
2023-03-15T16:17:18.025Z,7.00
2023-03-15T16:19:47.092Z,5.40
2023-03-15T16:22:17.495Z,4.30
2023-03-15T16:24:49.215Z,4.30
2023-03-15T16:27:24.351Z,4.60
2023-03-15T16:29:55.849Z,4.30
2023-03-15T16:32:41.100Z,5.30
2023-03-15T16:35:16.837Z,5.90
2023-03-15T16:37:46.660Z,13.10
2023-03-15T16:40:21.855Z,7.90
2023-03-15T16:42:50.695Z,5.20
2023-03-15T16:45:19.818Z,5.60
2023-03-15T16:47:48.998Z,10.10
2023-03-15T16:50:18.684Z,7.70
2023-03-15T16:52:51.908Z,7.70
2023-03-15T16:55:25.705Z,7.40
2023-03-15T16:57:55.081Z,7.20
2023-03-15T17:00:24.770Z,6.60
2023-03-15T17:02:54.303Z,6.20
2023-03-15T17:05:24.915Z,5.20
2023-03-15T17:07:55.413Z,6.50
2023-03-15T17:10:29.842Z,6.00
2023-03-15T17:13:03.276Z,5.60
2023-03-15T17:15:32.025Z,6.30
2023-03-15T17:18:00.870Z,6.30
2023-03-15T17:20:31.354Z,8.70
2023-03-15T17:23:04.393Z,5.60
2023-03-15T17:25:34.439Z,5.30
2023-03-15T17:28:03.646Z,6.30
2023-03-15T17:30:36.247Z,5.80
2023-03-15T17:33:05.446Z,6.30
2023-03-15T17:35:37.794Z,6.30
2023-03-15T17:38:13.887Z,6.90
2023-03-15T17:40:42.830Z,10.10
2023-03-15T17:43:14.444Z,10.10
2023-03-15T17:45:43.836Z,8.00
2023-03-15T17:48:13.182Z,6.30
2023-03-15T17:50:44.617Z,6.30
2023-03-15T17:53:19.338Z,6.80
2023-03-15T17:55:49.378Z,6.80
2023-03-15T17:58:21.292Z,6.80
2023-03-15T18:00:54.971Z,7.10
2023-03-15T18:03:24.433Z,6.60
2023-03-15T18:05:53.023Z,7.30
2023-03-15T18:08:22.602Z,8.40
2023-03-15T18:10:52.110Z,7.40
2023-03-15T18:13:21.785Z,7.00
2023-03-15T18:15:51.637Z,7.10
2023-03-15T18:18:20.976Z,8.10
2023-03-15T18:20:49.870Z,6.70
2023-03-15T18:23:21.539Z,7.10
2023-03-15T18:25:52.986Z,7.50
2023-03-15T18:28:21.571Z,7.60
2023-03-15T18:30:50.682Z,6.80
2023-03-15T18:33:19.259Z,6.40
2023-03-15T18:35:47.686Z,7.00
2023-03-15T18:38:16.576Z,8.70
2023-03-15T18:40:44.931Z,8.90
2023-03-15T18:43:14.859Z,10.60
2023-03-15T18:45:44.119Z,11.30
2023-03-15T18:48:12.532Z,14.20
2023-03-15T18:50:43.780Z,10.80
2023-03-15T18:53:12.486Z,9.00
2023-03-15T18:55:41.278Z,7.70
2023-03-15T18:58:13.182Z,7.40
2023-03-15T19:00:42.001Z,8.10
2023-03-15T19:03:11.853Z,8.10
2023-03-15T19:05:40.433Z,9.10
2023-03-15T19:08:08.721Z,8.80
2023-03-15T19:10:37.100Z,7.60
2023-03-15T19:13:05.285Z,8.10
2023-03-15T19:15:33.779Z,8.40
2023-03-15T19:18:02.658Z,7.00
2023-03-15T19:20:32.066Z,8.20
2023-03-15T19:23:00.659Z,8.40
2023-03-15T19:25:29.042Z,7.40
2023-03-15T19:27:57.627Z,7.90
2023-03-15T19:30:26.731Z,10.50
2023-03-15T19:32:55.651Z,10.20
2023-03-15T19:35:24.988Z,10.70
2023-03-15T19:37:53.930Z,11.50
2023-03-15T19:40:22.895Z,11.20
2023-03-15T19:42:51.324Z,10.20
2023-03-15T19:45:19.799Z,9.00
2023-03-15T19:47:50.004Z,9.10
2023-03-15T19:50:19.135Z,8.40
2023-03-15T19:52:47.421Z,8.20
2023-03-15T19:55:18.352Z,7.20
2023-03-15T19:57:47.244Z,6.70
2023-03-15T20:00:18.351Z,6.80
2023-03-15T20:02:47.949Z,5.40
2023-03-15T20:05:18.437Z,6.10
2023-03-15T20:07:47.517Z,6.10
2023-03-15T20:10:16.125Z,6.20
2023-03-15T20:12:45.592Z,6.00
2023-03-15T20:15:17.211Z,5.30
2023-03-15T20:17:45.888Z,5.50
2023-03-15T20:20:14.876Z,5.10
2023-03-15T20:22:44.718Z,5.20
2023-03-15T20:25:14.833Z,4.40
2023-03-15T20:27:43.571Z,4.00
2023-03-15T20:30:14.864Z,3.40
2023-03-15T20:32:44.002Z,4.20
2023-03-15T20:35:12.481Z,3.50
2023-03-15T20:37:42.584Z,3.70
